• Join FlightAware (Why Join?)
  • Login
  • US Flag 
07:06PM EDT


 

Airport Tracker/Info


-or-


 

Live Flight TrackerFlight Track Log ✈ SWA1366 ✈ 18-Jun-2013 ✈ KDEN - KMHT

Flight Track Log - Related Links

Times and Time Zones

All times are in EDT time to prevent confusion due to time zone crossing. See the SWA1366 flight status page for this flight to view local times or setup timezone preferences in your user account.

Time Position Orientation Groundspeed Altitude Reporting Facility
EDT Latitude Longitude Course Direction KTS MPH feet Rate Location/Type
09:28PM 39.8881 -104.5811 72° East 179 206 7,200  Level Denver Center
09:29PM 39.9081 -104.4986 72° East 235 270 9,300 1,620 Climbing Denver Center
09:30PM 39.9294 -104.3864 76° East 310 357 10,600 1,320 Climbing Denver Center
09:31PM 39.9514 -104.2617 77° East 350 403 12,100 720 Climbing Denver Center
09:32PM 39.9717 -104.1367 78° East 352 405 12,100 840 Level Denver Center
09:34PM 40.0958 -103.7150 72° East  Level Estimated
09:34PM 39.9928 -103.9989 79° East 357 411 13,900  Level Denver Center
09:35PM 40.0133 -103.8667 78° East 373 429 16,300 2,340 Climbing Denver Center
09:36PM 40.0389 -103.7156 77° East 392 451 18,800 2,340 Climbing Denver Center
09:37PM 40.0628 -103.5711 78° East 404 465 21,200 2,220 Climbing Denver Center
09:38PM 40.0850 -103.4183 79° East 423 487 23,400 1,920 Climbing Denver Center
09:39PM 40.1083 -103.2633 79° East 434 499 25,200 1,560 Climbing Denver Center
09:40PM 40.1342 -103.1011 78° East 454 522 26,700 1,860 Climbing Denver Center
09:41PM 40.1583 -102.9378 79° East 457 526 29,100 1,740 Climbing Denver Center
09:42PM 40.1831 -102.7728 79° East 463 533 30,300 1,320 Climbing Denver Center
09:43PM 40.2133 -102.5847 78° East 474 545 31,900 1,500 Climbing Denver Center
09:44PM 40.2403 -102.3944 79° East 478 550 33,400 1,200 Climbing Denver Center
09:45PM 40.2606 -102.2572 79° East 481 554 34,400 1,080 Climbing Denver Center
09:46PM 40.2883 -102.0642 79° East 485 558 35,700 1,140 Climbing Denver Center
09:47PM 40.3150 -101.8700 80° East 486 559 36,800 600 Climbing Denver Center
09:48PM 40.3400 -101.7031 79° East 488 562 37,000 60 Climbing Denver Center
09:49PM 40.3675 -101.5042 80° East 498 573 37,000  Level Denver Center
09:50PM 40.3903 -101.3306 80° East 506 582 37,000  Level Denver Center
09:51PM 40.4181 -101.1294 80° East 504 580 37,000  Level Denver Center
09:52PM 40.4411 -100.9575 80° East 503 579 37,000  Level Denver Center
09:53PM 40.4689 -100.7567 80° East 505 581 37,000  Level Denver Center
09:54PM 40.4906 -100.5844 81° East 506 582 37,000  Level Denver Center
09:55PM 40.5169 -100.3856 80° East 500 575 37,000  Level Denver Center
09:56PM 40.5383 -100.2175 80° East 493 567 37,000  Level Denver Center
09:57PM 40.5633 -100.0236 80° East 486 559 37,000  Level Denver Center
09:58PM 40.5836 -99.8556 81° East 487 560 37,000  Level Denver Center
09:59PM 40.6044 -99.6850 81° East 486 559 37,000  Level Denver Center
10:00PM 40.6258 -99.5111 81° East 484 557 37,000 480 Level Denver Center
10:01PM 40.6508 -99.2986 81° East 491 565 38,000 480 Climbing Denver Center
10:02PM 40.6717 -99.1233 81° East 488 562 38,000  Level Denver Center
10:03PM 40.6914 -98.9483 81° East 487 560 38,000  Level Denver Center
10:04PM 40.7106 -98.7742 82° East 486 559 38,000  Level Denver Center
10:05PM 40.7308 -98.6003 81° East 485 558 38,000  Level Denver Center
10:06PM 40.7650 -98.3956 78° East 481 554 38,000  Level Denver Center
10:08PM 40.7969 -98.1903 78° East 480 552 38,000  Level Minneapolis Center
10:09PM 40.8239 -98.0197 78° East 479 551 38,000  Level Minneapolis Center
10:10PM 40.8564 -97.8144 78° East 478 550 38,000  Level Minneapolis Center
10:11PM 40.8817 -97.6431 79° East 478 550 38,000  Level Minneapolis Center
10:12PM 40.9086 -97.4717 78° East 477 549 38,000  Level Minneapolis Center
10:13PM 40.9322 -97.3194 78° East 476 548 38,000  Level Minneapolis Center
10:14PM 40.9628 -97.1136 79° East 476 548 38,000  Level Minneapolis Center
10:15PM 40.9878 -96.9403 79° East 480 552 38,000  Level Minneapolis Center
10:16PM 41.0133 -96.7697 79° East 475 547 38,000  Level Minneapolis Center
10:17PM 41.0383 -96.5992 79° East 475 547 38,000  Level Minneapolis Center
10:18PM 41.0633 -96.4278 79° East 475 547 38,000  Level Minneapolis Center
10:19PM 41.0872 -96.2583 79° East 474 545 38,000  Level Minneapolis Center
10:20PM 41.1147 -96.0556 80° East 473 544 38,000  Level Minneapolis Center
10:21PM 41.1386 -95.8914 79° East 481 554 38,000  Level Minneapolis Center
10:22PM 41.1633 -95.7211 79° East 473 544 38,000  Level Minneapolis Center
10:23PM 41.1844 -95.5444 81° East 476 548 38,000  Level Minneapolis Center
10:24PM 41.2075 -95.3731 80° East 475 547 38,000  Level Minneapolis Center
10:25PM 41.2311 -95.1989 80° East 481 554 38,000  Level Minneapolis Center
10:26PM 41.2583 -94.9911 80° East 477 549 38,000  Level Minneapolis Center
10:27PM 41.2803 -94.8183 80° East 477 549 38,000  Level Minneapolis Center
10:28PM 41.3014 -94.6436 81° East 478 550 38,000  Level Minneapolis Center
10:29PM 41.3242 -94.4675 80° East 482 555 38,000  Level Minneapolis Center
10:30PM 41.3456 -94.2914 81° East 484 557 38,000 300 Level Minneapolis Center
10:31PM 41.3686 -94.0956 81° East 486 559 38,700 480 Climbing Minneapolis Center
10:32PM 41.3911 -93.9181 80° East 489 563 39,000 120 Climbing Minneapolis Center
10:33PM 41.4125 -93.7417 81° East 487 560 39,000  Level Minneapolis Center
10:35PM 41.4328 -93.5664 81° East 484 557 39,000  Level Minneapolis Center
10:36PM 41.4542 -93.3897 81° East 485 558 39,000  Level Minneapolis Center
10:37PM 41.4739 -93.2164 81° East 480 552 39,000  Level Minneapolis Center
10:38PM 41.4939 -93.0447 81° East 474 545 39,000  Level Minneapolis Center
10:39PM 41.5158 -92.8353 82° East 476 548 39,000  Level Minneapolis Center
10:40PM 41.5356 -92.6619 81° East 476 548 39,000  Level Minneapolis Center
10:40PM 41.5492 -92.5389 82° East 474 545 39,000  Level Chicago Center
10:41PM 41.5681 -92.3625 82° East 482 555 39,000  Level Chicago Center
10:42PM 41.5853 -92.1894 82° East 477 549 39,000  Level Chicago Center
10:44PM 41.6075 -91.9778 82° East 484 557 39,000  Level Chicago Center
10:45PM 41.6256 -91.8011 82° East 488 562 39,000  Level Chicago Center
10:46PM 41.6431 -91.6236 82° East 488 562 39,000  Level Chicago Center
10:47PM 41.6603 -91.4447 83° East 492 566 39,000  Level Chicago Center
10:48PM 41.6781 -91.2664 82° East 492 566 39,000  Level Chicago Center
10:49PM 41.6992 -91.0497 82° East 495 570 39,000  Level Chicago Center
10:50PM 41.7150 -90.8697 83° East 495 570 39,000  Level Chicago Center
10:51PM 41.7319 -90.6908 83° East 493 567 39,000  Level Chicago Center
10:52PM 41.7475 -90.5122 83° East 495 570 39,000  Level Chicago Center
10:53PM 41.7669 -90.3297 82° East 495 570 39,000  Level Chicago Center
10:54PM 41.8014 -90.1544 75° East 495 570 39,000  Level Chicago Center
10:55PM 41.8428 -89.9406 75° East 500 575 39,000  Level Chicago Center
10:56PM 41.8733 -89.7781 76° East 496 571 39,000  Level Chicago Center
10:57PM 41.9067 -89.5978 76° East 500 575 39,000  Level Chicago Center
10:58PM 41.9322 -89.4122 79° East 506 582 39,000  Level Chicago Center
10:59PM 41.9581 -89.1889 81° East 505 581 39,000  Level Chicago Center
11:00PM 41.9789 -89.0050 81° East 502 578 39,000  Level Chicago Center
11:01PM 42.0008 -88.8181 81° East 507 583 39,000  Level Chicago Center
11:02PM 42.0231 -88.6303 81° East 510 587 39,000  Level Chicago Center
11:03PM 42.0439 -88.4414 81° East 510 587 39,000  Level Chicago Center
11:04PM 42.0642 -88.2539 82° East 508 585 39,000  Level Chicago Center
11:05PM 42.0853 -88.0669 81° East 506 582 39,000  Level Chicago Center
11:06PM 42.1050 -87.8772 82° East 509 586 39,000  Level Chicago Center
11:07PM 42.1297 -87.6519 82° East 509 586 39,000  Level Chicago Center
11:08PM 42.1494 -87.4650 82° East 506 582 39,000  Level Chicago Center
11:09PM 42.1681 -87.2764 82° East 507 583 39,000  Level Chicago Center
11:10PM 42.1867 -87.0917 82° East 501 577 39,000  Level Chicago Center
11:11PM 42.2039 -86.9058 83° East 502 578 39,000  Level Chicago Center
11:12PM 42.2231 -86.7211 82° East 501 577 39,000  Level Chicago Center
11:13PM 42.2431 -86.5272 82° East 503 579 39,000  Level Chicago Center
11:14PM 42.2606 -86.3419 83° East 499 574 39,000  Level Chicago Center
11:15PM 42.2781 -86.1550 83° East 501 577 39,000  Level Chicago Center
11:16PM 42.2961 -85.9464 83° East 500 575 39,000  Level Chicago Center
11:17PM 42.3133 -85.7606 83° East 503 579 39,000  Level Chicago Center
11:18PM 42.3303 -85.5700 83° East 504 580 39,000  Level Chicago Center
11:19PM 42.3467 -85.3889 83° East 502 578 39,000  Level Chicago Center
11:20PM 42.3617 -85.2044 84° East 498 573 39,000  Level Chicago Center
11:21PM 42.3778 -85.0200 83° East 499 574 39,000  Level Chicago Center
11:22PM 42.3928 -84.8331 84° East 501 577 39,000  Level Chicago Center
11:23PM 42.4114 -84.6078 84° East 505 581 39,000  Level Chicago Center
11:24PM 42.4261 -84.4167 84° East 512 589 39,000  Level Chicago Center
11:25PM 42.4397 -84.2267 84° East 510 587 39,000  Level Chicago Center
11:26PM 42.4558 -84.0350 83° East 513 590 39,000  Level Chicago Center
11:28PM 42.4681 -83.8431 85° East 517 595 39,000  Level Chicago Center
11:29PM 42.4878 -83.5819 84° East 502 578 39,000  Level Cleveland Center
11:30PM 42.4989 -83.3939 85° East 502 578 39,000  Level Cleveland Center
11:31PM 42.5117 -83.2028 85° East 502 578 39,000  Level Cleveland Center
11:32PM 42.5242 -83.0172 85° East 496 571 39,000  Level Cleveland Center
11:33PM 42.5342 -82.8289 86° East 496 571 39,000  Level Cleveland Center
11:34PM 42.5461 -82.6406 85° East 501 577 39,000  Level Cleveland Center
11:35PM 42.5575 -82.4492 85° East 501 577 39,000  Level Cleveland Center
11:36PM 42.5689 -82.2606 85° East 501 577 39,000  Level Cleveland Center
11:37PM 42.5797 -82.0719 85° East 501 577 39,000  Level Cleveland Center
11:38PM 42.5903 -81.8833 86° East 501 577 39,000  Level Cleveland Center
11:39PM 42.6031 -81.6806 85° East 494 568 39,000  Level Cleveland Center
11:40PM 42.6108 -81.4917 87° East 494 568 39,000  Level Cleveland Center
11:41PM 42.6225 -81.3111 85° East 493 567 39,000  Level Cleveland Center
11:42PM 42.6297 -81.1222 87° East 498 573 39,000  Level Cleveland Center
11:43PM 42.6389 -80.9558 86° East 498 573 39,000  Level Cleveland Center
11:44PM 42.6475 -80.7667 86° East 498 573 39,000  Level Cleveland Center
11:45PM 42.6542 -80.5747 87° East 503 579 39,000  Level Cleveland Center
11:46PM 42.6642 -80.3828 86° East 498 573 39,000  Level Cleveland Center
11:47PM 42.6722 -80.1992 87° East 498 573 39,000  Level Cleveland Center
11:48PM 42.6775 -79.9903 88° East 498 573 39,000  Level Cleveland Center
11:49PM 42.6869 -79.8036 86° East 498 573 39,000  Level Cleveland Center
11:50PM 42.6939 -79.6172 87° East 498 573 39,000  Level Cleveland Center
11:51PM 42.7025 -79.4306 86° East 498 573 39,000  Level Cleveland Center
11:52PM 42.7067 -79.2439 88° East 498 573 39,000  Level Cleveland Center
11:53PM 42.7128 -79.0544 87° East 498 573 39,000  Level Cleveland Center
11:54PM 42.7183 -78.8650 88° East 498 573 39,000  Level Cleveland Center
11:55PM 42.7217 -78.6756 89° East 498 573 39,000  Level Cleveland Center
11:56PM 42.7267 -78.4831 88° East 498 573 39,000  Level Cleveland Center
11:57PM 42.7314 -78.2936 88° East 498 573 39,000  Level Cleveland Center
11:58PM 42.7358 -78.1011 88° East 498 573 39,000  Level Cleveland Center
11:59PM 42.7403 -77.9342 88° East 498 573 39,000  Level Cleveland Center
12:00AM 42.7419 -77.7361 89° East 503 579 39,000  Level Cleveland Center
12:01AM 42.7475 -77.5408 88° East 508 585 39,000  Level Cleveland Center
12:03AM 42.7522 -77.0669 89° East 528 608 39,000  Level Boston Center
12:04AM 42.7561 -76.8689 88° East 528 608 39,000  Level Boston Center
12:05AM 42.7569 -76.6794 90° East 517 595 39,000  Level Boston Center
12:06AM 42.7600 -76.4844 89° East 512 589 39,000 -360 Level Boston Center
12:07AM 42.7603 -76.2922 90° East 512 589 38,300 -840 Descending Boston Center
12:08AM 42.7617 -76.1225 89° East 512 589 37,400 -960 Descending Boston Center
12:09AM 42.7617 -75.9244 90° East 512 589 36,400 -960 Descending Boston Center
12:10AM 42.7614 -75.7292 90° East 517 595 35,500 -900 Descending Boston Center
12:11AM 42.7628 -75.5286 89° East 517 595 34,600 -960 Descending Boston Center
12:12AM 42.7619 -75.3247 90° East 523 602 33,600 -1,140 Descending Boston Center
12:14AM 42.7532 -75.0973 93° East  Level FlightAware Approximate
12:14AM 42.7589 -74.9172 93° East 518 596 31,300  Level Boston Center
12:15AM 42.7569 -74.7222 91° East 511 588 30,500 -900 Descending Boston Center
12:16AM 42.7544 -74.5269 91° East 511 588 29,600 -960 Descending Boston Center
12:17AM 42.7536 -74.3289 90° East 518 596 28,600 -960 Descending Boston Center
12:18AM 42.7525 -74.1281 90° East 523 602 27,700 -840 Descending Boston Center
12:19AM 42.7492 -73.9331 91° East 518 596 27,000 -600 Descending Boston Center
12:20AM 42.7514 -73.7408 89° East 512 589 26,600 -600 Descending Boston Center
12:21AM 42.7575 -73.5739 87° East 507 583 25,900 -900 Descending Boston Center
12:22AM 42.7633 -73.3931 87° East 489 563 24,900 -1,020 Descending Boston Center
12:23AM 42.7708 -73.2178 87° East 476 548 23,900 -1,020 Descending Boston Center
12:24AM 42.7764 -72.9889 88° East 476 548 22,700 -1,680 Descending Boston Center
12:25AM 42.7811 -72.8136 88° East 468 539 20,300 -2,400 Descending Boston Center
12:26AM 42.7858 -72.6522 88° East 443 510 18,000 -2,340 Descending Boston Center
12:27AM 42.7900 -72.4939 88° East 422 486 15,700 -2,340 Descending Boston Center
12:28AM 42.7942 -72.3467 88° East 401 461 13,400 -2,280 Descending Boston Center
12:29AM 42.8003 -72.2053 87° East 394 453 11,200 -1,740 Descending Boston Center
12:30AM 42.8019 -72.0694 89° East 361 415 10,000 -1,200 Descending Boston Center
12:31AM 42.7975 -71.9619 93° East 322 371 8,900 -1,500 Descending Boston Center
12:32AM 42.7886 -71.8403 96° East 296 341 7,100 -1,680 Descending Boston Center
12:33AM 42.7817 -71.7442 96° East 283 326 5,600 -1,380 Descending Boston Center
12:34AM 42.7728 -71.6369 96° East 272 313 4,400 -900 Descending Boston Center
12:35AM 42.7764 -71.5633 86° East 227 261 3,800 -600 Descending Boston Center
12:36AM 42.8028 -71.4922 63° Northeast 188 216 3,300 -780 Descending Boston Center
12:37AM 42.8086 -71.4411 81° East 163 188 2,300 -660 Descending Boston Center
12:38AM 42.8247 -71.3814 70° East 156 180 2,000 -300 Descending Boston Center
12:39AM 42.8561 -71.3922 346° North 104 120 1,700 -540 Descending Boston Center
12:40AM 42.8833 -71.4000 348° North 134 154 1,200 -840 Descending KA90
12:41AM 42.9167 -71.4167 340° North 141 162 500 5,100 Descending KA90
12:43AM 42.9986 -71.4664 336° Northwest 133 153 19,000 7,440 Climbing Boston Center